Latest Coastal Weather Observations for Hervey Bay

IDQ60701

Issued at 6:01 am EST Wednesday 5 August 2015 (issued every 10 minutes, with the page automatically refreshed every 10 minutes)

About coastal observations | Map of coastal stations | Coastal observations for QLD | Marine services | Other Formats
Station Details ID: 040405 Name: HERVEY BAY AIRPORT Lat: -25.32 Lon: 152.88 Height: 12.98 m
Data from the previous 72 hours. | See also: Recent months at Hervey Bay
Date/Time
EST
Temp

°C
Wind Pressure Rain
since 9am
mm
Weather Cloud Vis
km
Sea
Height
m
Swell
Dir
 
Speed
knots
Gust
knots
hPa Trend Height
m
Period
s
Dir
05/06:00am 9.2 SW 11 15 1016.9 - 0.2 - - 10 - - - -
05/05:30am 9.5 SW 10 14 1016.9 - 0.2 - - 10 - - - -
05/05:00am 9.9 SW 12 16 1016.8 - 0.2 - - 10 - - - -
05/04:30am 10.2 SW 12 16 1016.6 - 0.2 - - 10 - - - -
05/04:00am 10.5 SW 11 16 1016.4 - 0.2 - - 10 - - - -
05/03:30am 11.0 SW 11 16 1016.4 - 0.2 - - 10 - - - -
05/03:00am 11.4 SW 10 15 1016.4 - 0.2 - - 10 - - - -
05/02:30am 11.9 SW 10 13 1016.4 - 0.2 - - 10 - - - -
05/02:00am 12.4 SW 12 16 1016.4 - 0.2 - - 10 - - - -
05/01:30am 12.7 SW 10 14 1016.6 - 0.2 - - 10 - - - -
05/01:00am 13.5 SW 9 13 1016.9 - 0.2 - Partly cloudy 10 - - - -
05/12:30am 14.3 SW 9 12 1016.8 - 0.2 - Partly cloudy 10 - - - -
05/12:00am 14.5 SW 7 10 1016.9 - 0.2 - Cloudy 10 - - - -
 
Date/Time
EST
Temp

°C
Wind Pressure Rain
since 9am
mm
Weather Cloud Vis
km
Sea
Height
m
Swell
Dir
 
Speed
knots
Gust
knots
hPa Trend Height
m
Period
s
Dir
04/11:30pm 14.0 SW 5 7 1016.8 - 0.2 - Partly cloudy 10 - - - -
04/11:00pm 13.9 SW 5 7 1016.8 - 0.2 - - 10 - - - -
04/10:30pm 14.4 SW 5 7 1016.9 - 0.2 - Partly cloudy 10 - - - -
04/10:00pm 14.3 WSW 4 6 1017.0 - 0.2 - Partly cloudy 10 - - - -
04/09:30pm 14.8 WSW 6 8 1017.1 - 0.2 - Partly cloudy 10 - - - -
04/09:00pm 14.4 SSW 4 5 1016.8 - 0.2 - - 10 - - - -
04/08:30pm 15.3 S 4 6 1016.6 - 0.2 - - 10 - - - -
04/08:00pm 15.9 SSE 4 7 1016.6 - 0.2 - - 10 - - - -
04/07:30pm 16.3 S 5 7 1016.5 - 0.2 - - 10 - - - -
04/07:00pm 16.7 S 6 8 1016.6 - 0.2 - Partly cloudy 10 - - - -
04/06:30pm 16.9 SSE 4 6 1016.6 - 0.2 - Partly cloudy 10 - - - -
04/06:00pm 17.2 SSE 5 7 1016.4 - 0.2 - - 10 - - - -
04/05:30pm 17.8 SSE 5 7 1016.0 - 0.2 - - 10 - - - -
04/05:00pm 18.9 SE 7 11 1015.8 - 0.2 - - 10 - - - -
04/04:30pm 19.4 SE 6 9 1015.8 - 0.2 - Partly cloudy 10 - - - -
04/04:00pm 20.0 SSE 6 12 1015.6 - 0.2 - - 10 - - - -
04/03:30pm 20.7 SSE 8 12 1015.4 - 0.2 - Partly cloudy 10 - - - -
04/03:00pm 20.6 SSE 9 13 1015.5 - 0.2 - Mostly clear 10 - - - -
04/02:30pm 20.7 S 7 11 1016.0 - 0.2 - Partly cloudy 10 - - - -
04/02:00pm 19.6 SSW 9 13 1016.1 - 0.2 - Partly cloudy 10 - - - -
04/01:30pm 19.3 S 10 14 1016.4 - 0.2 - Partly cloudy 10 - - - -
04/01:00pm 19.2 S 9 14 1016.6 - 0.2 - - 10 - - - -
04/12:30pm 18.7 SSW 7 10 1017.2 - 0.2 - Partly cloudy 10 - - - -
04/12:00pm 17.2 SW 7 9 1017.7 - 0.2 - Mostly clear 10 - - - -
04/11:30am 15.4 S 5 9 1018.2 - 0.2 - Partly cloudy 10 - - - -
04/11:00am 14.7 SW 5 7 1018.7 - 0.2 - Partly cloudy 10 - - - -
04/10:30am 15.1 SSW 7 10 1019.1 - 0.0 - Partly cloudy 10 - - - -
04/10:00am 15.2 WSW 7 10 1019.4 - 0.0 - Partly cloudy 10 - - - -
04/09:30am 14.8 WSW 7 10 1019.4 - 0.0 - Partly cloudy 10 - - - -
04/09:00am 14.5 SW 9 13 1019.1 - 0.4 Recent precip. Mostly cloudy 10 - - - -
04/08:30am 13.3 SSW 8 11 1018.8 - 0.4 - Partly cloudy 10 - - - -
04/08:00am 15.3 SW 8 11 1018.6 - 0.2 - Partly cloudy 10 - - - -
04/07:30am 14.0 SW 6 10 1018.3 - 0.2 - Partly cloudy 10 - - - -
04/07:00am 12.7 WSW 5 8 1018.2 - 0.2 - Partly cloudy 10 - - - -
04/06:30am 12.1 WSW 5 7 1017.7 - 0.2 - Cloudy 10 - - - -
04/06:00am 12.1 W 1 3 1017.3 - 0.2 - Partly cloudy 10 - - - -
04/05:30am 12.3 CALM 0 0 1017.0 - 0.2 - Partly cloudy 9 - - - -
04/05:00am 13.0 SW 3 5 1016.7 - 0.2 - Partly cloudy 10 - - - -
04/04:30am 13.4 SW 6 6 1016.2 - 0.2 - Partly cloudy 10 - - - -
04/04:00am 14.0 SW 3 4 1016.2 - 0.2 - Partly cloudy 10 - - - -
04/03:30am 15.3 W 5 6 1016.2 - 0.2 - Partly cloudy 10 - - - -
04/03:26am 15.5 W 5 6 1016.3 - 0.2 - Partly cloudy 10 - - - -
04/03:00am 15.6 WNW 3 4 1016.4 - 0.2 Recent precip. - 0.5 - - - -
04/02:36am 16.1 NW 4 6 1016.3 - 0.0 - - 5 - - - -
04/02:30am 16.3 NNW 4 5 1016.3 - 0.0 - - 7 - - - -
04/02:00am 16.4 NW 5 6 1016.4 - 0.0 - - 10 - - - -
04/01:30am 17.3 WNW 6 7 1016.5 - 0.0 - - 10 - - - -
04/01:05am 17.3 N 6 8 1016.5 - 0.0 - Partly cloudy 10 - - - -
04/01:00am 17.2 N 6 8 1016.5 - 0.0 - Partly cloudy 10 - - - -
04/12:58am 17.2 N 6 8 1016.5 - 0.0 - Partly cloudy 9 - - - -
04/12:30am 17.2 WNW 5 7 1016.8 - 0.0 - Partly cloudy 2 - - - -
04/12:23am 16.6 W 5 7 1016.9 - 0.0 - Partly cloudy 1 - - - -
04/12:06am 15.9 W 3 4 1016.9 - 0.0 - - 5 - - - -
04/12:00am 16.2 WSW 4 6 1017.0 - 0.0 - - 9 - - - -
 
Date/Time
EST
Temp

°C
Wind Pressure Rain
since 9am
mm
Weather Cloud Vis
km
Sea
Height
m
Swell
Dir
 
Speed
knots
Gust
knots
hPa Trend Height
m
Period
s
Dir
03/11:30pm 16.4 SW 2 4 1017.1 - 0.0 - - 10 - - - -
03/11:00pm 17.5 W 5 6 1017.1 - 0.0 - - 10 - - - -
03/10:30pm 18.6 N 6 7 1016.8 - 0.0 - - 10 - - - -
03/10:00pm 18.6 N 5 7 1017.0 - 0.0 - - 10 - - - -
03/09:30pm 18.8 N 6 8 1017.0 - 0.0 - - 10 - - - -
03/09:00pm 18.8 N 5 7 1017.1 - 0.0 - - 10 - - - -
03/08:30pm 18.8 N 6 8 1017.1 - 0.0 - - 10 - - - -
03/08:00pm 18.9 N 6 8 1017.1 - 0.0 - - 10 - - - -
03/07:30pm 18.9 N 6 8 1017.0 - 0.0 - - 10 - - - -
03/07:00pm 18.7 N 5 7 1017.0 - 0.0 - - 10 - - - -
03/06:30pm 19.0 N 5 7 1016.9 - 0.0 - - 10 - - - -
03/06:00pm 19.3 N 6 8 1016.7 - 0.0 - - 10 - - - -
03/05:30pm 19.6 N 6 9 1016.4 - 0.0 - - 10 - - - -
03/05:00pm 20.4 N 7 11 1016.3 - 0.0 - - 10 - - - -
03/04:30pm 21.3 N 8 13 1016.2 - 0.0 - - 10 - - - -
03/04:00pm 21.8 N 10 14 1016.2 - 0.0 - - 10 - - - -
03/03:30pm 22.3 N 10 14 1016.1 - 0.0 - - 10 - - - -
03/03:00pm 22.9 N 11 17 1016.1 - 0.0 - - 10 - - - -
03/02:30pm 23.0 NNW 11 16 1016.4 - 0.0 - - 10 - - - -
03/02:00pm 22.7 N 11 14 1016.4 - 0.0 - - 10 - - - -
03/01:30pm 23.1 N 12 15 1016.8 - 0.0 - - 10 - - - -
03/01:00pm 23.3 N 10 14 1017.2 - 0.0 - - 10 - - - -
03/12:30pm 23.6 N 10 15 1017.7 - 0.0 - - 10 - - - -
03/12:00pm 24.0 NNW 9 13 1018.4 - 0.0 - - 10 - - - -
03/11:30am 23.1 NNW 11 14 1018.9 - 0.0 - - 10 - - - -
03/11:00am 23.2 NNW 8 13 1019.4 - 0.0 - - 10 - - - -
03/10:30am 23.2 N 9 12 1020.0 - 0.0 - - 10 - - - -
03/10:00am 22.6 NNW 7 11 1020.5 - 0.0 - - 10 - - - -
03/09:30am 21.0 WNW 4 6 1020.6 - 0.0 - - 10 - - - -
03/09:00am 18.8 W 3 5 1020.5 - 0.0 - Mostly clear 10 - - - -
03/08:43am 17.5 SSW 3 4 1020.2 - 0.0 - Partly cloudy 10 - - - -
03/08:42am 17.4 SSW 2 4 1020.3 - 0.0 - Partly cloudy 10 - - - -
03/08:30am 16.9 CALM 0 3 1020.2 - 0.0 - Partly cloudy 3 - - - -
03/08:00am 15.0 CALM 0 0 1020.1 - 0.0 - Cloudy 0.3 - - - -
03/07:30am 13.1 CALM 0 0 1020.0 - 0.0 - Cloudy 0.1 - - - -
03/07:00am 11.4 CALM 0 0 1019.8 - 0.0 - Cloudy 0.9 - - - -
03/06:36am 10.7 CALM 0 0 1019.7 - 0.0 - Partly cloudy 0.5 - - - -
03/06:35am 10.7 CALM 0 0 1019.7 - 0.0 - Partly cloudy 0.5 - - - -
03/06:30am 10.7 CALM 0 0 1019.7 - 0.0 - Partly cloudy 1 - - - -
03/06:00am 11.1 CALM 0 0 1019.5 - 0.0 - Cloudy 0.3 - - - -
03/05:30am 12.0 CALM 0 0 1019.3 - 0.0 - Cloudy 0.1 - - - -
03/05:00am 12.6 CALM 0 0 1019.1 - 0.0 - Cloudy 0.2 - - - -
03/04:30am 11.8 SSW 3 4 1019.2 - 0.0 - Cloudy 0.3 - - - -
03/04:00am 10.7 SSW 3 4 1019.1 - 0.0 - Cloudy 0.8 - - - -
03/03:30am 10.6 SSW 2 3 1019.2 - 0.0 - Partly cloudy 0.5 - - - -
03/03:04am 10.3 CALM 0 4 1019.2 - 0.0 - Partly cloudy 0.3 - - - -
03/03:00am 10.2 CALM 0 0 1019.2 - 0.0 - Partly cloudy 0.3 - - - -
03/02:53am 10.2 CALM 0 0 1019.2 - 0.0 - - 4 - - - -
03/02:30am 10.2 CALM 0 0 1019.2 - 0.0 - - 10 - - - -
03/02:00am 10.3 NNE 1 3 1019.4 - 0.0 - - 10 - - - -
03/01:30am 10.4 CALM 0 0 1019.6 - 0.0 - - 10 - - - -
03/01:00am 10.3 CALM 0 0 1019.9 - 0.0 - - 10 - - - -
03/12:30am 10.4 CALM 0 0 1020.1 - 0.0 - - 10 - - - -
03/12:00am 10.5 CALM 0 0 1020.4 - 0.0 - - 10 - - - -
 
Date/Time
EST
Temp

°C
Wind Pressure Rain
since 9am
mm
Weather Cloud Vis
km
Sea
Height
m
Swell
Dir
 
Speed
knots
Gust
knots
hPa Trend Height
m
Period
s
Dir
02/11:30pm 10.4 NNE 3 4 1020.5 - 0.0 - - 10 - - - -
02/11:00pm 10.6 CALM 0 0 1020.7 - 0.0 - - 10 - - - -
02/10:30pm 10.7 CALM 0 0 1020.7 - 0.0 - - 10 - - - -
02/10:00pm 11.0 CALM 0 0 1020.9 - 0.0 - - 10 - - - -
02/09:30pm 11.5 CALM 0 0 1021.0 - 0.0 - - 10 - - - -
02/09:00pm 11.8 CALM 0 0 1021.0 - 0.0 - - 10 - - - -
02/08:30pm 12.1 CALM 0 0 1021.1 - 0.0 - - 10 - - - -
02/08:00pm 12.3 CALM 0 0 1021.0 - 0.0 - - 10 - - - -
02/07:30pm 13.1 CALM 0 0 1020.8 - 0.0 - - 10 - - - -
02/07:00pm 13.8 CALM 0 0 1020.6 - 0.0 - - 10 - - - -
02/06:30pm 15.3 NNE 3 4 1020.4 - 0.0 - - 10 - - - -
02/06:00pm 18.2 N 4 5 1020.2 - 0.0 - - 10 - - - -
02/05:30pm 19.2 N 5 6 1020.2 - 0.0 - - 10 - - - -
02/05:00pm 20.8 N 5 7 1020.1 - 0.0 - - 10 - - - -
02/04:30pm 22.1 N 7 10 1020.0 - 0.0 - - 10 - - - -
02/04:00pm 22.9 NNW 8 12 1020.1 - 0.0 - - 10 - - - -
02/03:30pm 23.1 NNW 10 14 1020.2 - 0.0 - - 10 - - - -
02/03:00pm 23.7 NNW 9 13 1020.2 - 0.0 - - 10 - - - -
02/02:30pm 23.9 NNW 9 14 1020.2 - 0.0 - - 10 - - - -
02/02:00pm 24.2 NW 9 12 1020.5 - 0.0 - - 10 - - - -
02/01:30pm 23.8 NNW 10 15 1020.7 - 0.0 - - 10 - - - -
02/01:00pm 23.8 NNW 11 15 1021.3 - 0.0 - - 10 - - - -
02/12:30pm 24.0 NNW 10 13 1021.7 - 0.0 - - 10 - - - -
02/12:00pm 24.0 N 9 13 1022.0 - 0.0 - - 10 - - - -
02/11:30am 24.2 N 9 12 1022.3 - 0.0 - - 10 - - - -
02/11:00am 23.8 N 9 13 1022.8 - 0.0 - - 10 - - - -
02/10:30am 23.5 NNE 6 9 1023.0 - 0.0 - - 10 - - - -
02/10:00am 21.4 SW 4 5 1023.2 - 0.0 - - 10 - - - -
02/09:30am 19.3 SW 5 6 1023.4 - 0.0 - - 10 - - - -
02/09:00am 17.6 SW 4 6 1023.5 - 0.0 - - 10 - - - -
02/08:30am 15.6 SW 4 5 1023.3 - 0.0 - - 10 - - - -
02/08:00am 14.1 SSW 4 5 1023.3 - 0.0 - - 10 - - - -
02/07:30am 12.7 SW 4 5 1023.3 - 0.0 - - 10 - - - -
02/07:00am 11.2 SW 1 4 1023.1 - 0.0 - Partly cloudy 10 - - - -
02/06:30am 9.8 SSW 4 5 1023.0 - 0.0 - Partly cloudy 10 - - - -

Other Formats:

Comma delimited format used in spreadsheet applications
http://www.bom.gov.au/fwo/IDQ60701/IDQ60701.95565.axf

JavaScript Object Notation format (JSON) in row-major order
http://www.bom.gov.au/fwo/IDQ60701/IDQ60701.95565.json